Airports

 

 

Airport Name Latest METAR Visual Conditions
Guam International Airport (GUM) PGUM 170054Z 07021G26KT 10SM FEW037 BKN043 OVC060 26/21 A3000 RMK AO2 PK WND 09026/0049 SLP152 T02610206 VFR
Daniel K Inouye International Airport (HNL) PHNL 170053Z 06018G24KT 10SM FEW025 SCT050 28/16 A2997 RMK AO2 PK WND 08027/0029 SLP148 T02780161 VFR
Hilo International Airport (ITO) PHTO 170053Z AUTO 10SM FEW032 27/17 A2998 RMK AO2 SLP149 T02670167 TSNO VFR
Ellison Onizuka Kona International Airport at Keahole (Kona) (KOA) PHKO 170053Z 11011KT 10SM SCT020 BKN045 BKN080 25/17 A2991 RMK AO2 SLP127 T02500172 VFR
Lihue Airport (LIH) PHLI 170053Z 06016KT 10SM FEW024 FEW030 OVC047 25/19 A3001 RMK AO2 PRESFR SLP140 T02500194 $ VFR
Kahului Airport (Maui) (OGG) PHOG 170054Z 05023G28KT 10SM FEW035 SCT060 26/18 A2995 RMK AO2 PK WND 05030/0010 SLP148 T02610178 $ VFR